sensor_id;sensor_type;location;lat;lon;timestamp;P1;durP1;ratioP1;P2;durP2;ratioP2
24259;SDS011;12384;48.112;18.418;2022-08-21T00:01:51;12.17;;;11.27;;
24259;SDS011;12384;48.112;18.418;2022-08-21T00:04:22;11.90;;;11.00;;
24259;SDS011;12384;48.112;18.418;2022-08-21T00:06:55;10.63;;;9.83;;
24259;SDS011;12384;48.112;18.418;2022-08-21T00:09:25;11.37;;;10.57;;
24259;SDS011;12384;48.112;18.418;2022-08-21T00:11:53;10.67;;;9.90;;
24259;SDS011;12384;48.112;18.418;2022-08-21T00:14:22;11.40;;;10.53;;
24259;SDS011;12384;48.112;18.418;2022-08-21T00:16:51;12.50;;;11.50;;
24259;SDS011;12384;48.112;18.418;2022-08-21T00:19:27;12.17;;;11.23;;
24259;SDS011;12384;48.112;18.418;2022-08-21T00:21:55;11.90;;;11.00;;
24259;SDS011;12384;48.112;18.418;2022-08-21T00:24:24;12.27;;;11.27;;
24259;SDS011;12384;48.112;18.418;2022-08-21T00:26:53;12.73;;;11.73;;
24259;SDS011;12384;48.112;18.418;2022-08-21T00:29:22;12.20;;;11.30;;
24259;SDS011;12384;48.112;18.418;2022-08-21T00:31:50;12.53;;;11.53;;
24259;SDS011;12384;48.112;18.418;2022-08-21T00:34:19;13.40;;;12.10;;
24259;SDS011;12384;48.112;18.418;2022-08-21T00:36:49;13.23;;;12.10;;
24259;SDS011;12384;48.112;18.418;2022-08-21T00:39:18;13.90;;;12.70;;
24259;SDS011;12384;48.112;18.418;2022-08-21T00:41:46;14.17;;;12.87;;
24259;SDS011;12384;48.112;18.418;2022-08-21T00:44:15;13.23;;;12.00;;
24259;SDS011;12384;48.112;18.418;2022-08-21T00:46:44;13.07;;;11.87;;
24259;SDS011;12384;48.112;18.418;2022-08-21T00:49:13;12.47;;;11.47;;
24259;SDS011;12384;48.112;18.418;2022-08-21T00:51:42;12.63;;;11.60;;
24259;SDS011;12384;48.112;18.418;2022-08-21T00:54:17;12.03;;;11.03;;
24259;SDS011;12384;48.112;18.418;2022-08-21T00:56:48;12.17;;;11.13;;
24259;SDS011;12384;48.112;18.418;2022-08-21T00:59:21;13.63;;;11.80;;
24259;SDS011;12384;48.112;18.418;2022-08-21T01:01:50;11.53;;;10.63;;
24259;SDS011;12384;48.112;18.418;2022-08-21T01:04:19;12.67;;;11.57;;
24259;SDS011;12384;48.112;18.418;2022-08-21T01:06:48;12.27;;;11.17;;
24259;SDS011;12384;48.112;18.418;2022-08-21T01:09:19;12.33;;;11.33;;
24259;SDS011;12384;48.112;18.418;2022-08-21T01:11:47;11.27;;;10.40;;
24259;SDS011;12384;48.112;18.418;2022-08-21T01:14:16;10.90;;;10.00;;
24259;SDS011;12384;48.112;18.418;2022-08-21T01:16:46;11.93;;;10.93;;
24259;SDS011;12384;48.112;18.418;2022-08-21T01:19:17;11.27;;;10.37;;
24259;SDS011;12384;48.112;18.418;2022-08-21T01:21:49;11.37;;;10.43;;
24259;SDS011;12384;48.112;18.418;2022-08-21T01:24:19;13.10;;;11.90;;
24259;SDS011;12384;48.112;18.418;2022-08-21T01:26:48;12.53;;;11.33;;
24259;SDS011;12384;48.112;18.418;2022-08-21T01:29:20;12.27;;;11.27;;
24259;SDS011;12384;48.112;18.418;2022-08-21T01:31:54;12.57;;;11.47;;
24259;SDS011;12384;48.112;18.418;2022-08-21T01:34:23;11.83;;;10.80;;
24259;SDS011;12384;48.112;18.418;2022-08-21T01:36:53;11.97;;;10.97;;
24259;SDS011;12384;48.112;18.418;2022-08-21T01:39:21;11.33;;;10.47;;
24259;SDS011;12384;48.112;18.418;2022-08-21T01:41:50;11.13;;;10.23;;
24259;SDS011;12384;48.112;18.418;2022-08-21T01:44:20;11.97;;;10.97;;
24259;SDS011;12384;48.112;18.418;2022-08-21T01:46:49;11.43;;;10.43;;
24259;SDS011;12384;48.112;18.418;2022-08-21T01:49:18;11.80;;;10.80;;
24259;SDS011;12384;48.112;18.418;2022-08-21T01:51:47;13.93;;;12.63;;
24259;SDS011;12384;48.112;18.418;2022-08-21T01:54:16;12.17;;;11.17;;
24259;SDS011;12384;48.112;18.418;2022-08-21T01:56:46;11.93;;;11.03;;
24259;SDS011;12384;48.112;18.418;2022-08-21T01:59:17;11.87;;;10.87;;
24259;SDS011;12384;48.112;18.418;2022-08-21T02:01:46;11.77;;;10.87;;
24259;SDS011;12384;48.112;18.418;2022-08-21T02:04:16;11.70;;;10.50;;
24259;SDS011;12384;48.112;18.418;2022-08-21T02:06:44;11.97;;;11.07;;
24259;SDS011;12384;48.112;18.418;2022-08-21T02:09:13;11.83;;;10.93;;
24259;SDS011;12384;48.112;18.418;2022-08-21T02:11:43;12.60;;;11.60;;
24259;SDS011;12384;48.112;18.418;2022-08-21T02:14:13;12.17;;;11.07;;
24259;SDS011;12384;48.112;18.418;2022-08-21T02:16:58;13.13;;;11.87;;
24259;SDS011;12384;48.112;18.418;2022-08-21T02:19:34;12.37;;;11.37;;
24259;SDS011;12384;48.112;18.418;2022-08-21T02:22:07;11.97;;;10.87;;
24259;SDS011;12384;48.112;18.418;2022-08-21T02:24:36;11.50;;;10.50;;
24259;SDS011;12384;48.112;18.418;2022-08-21T02:27:21;12.10;;;11.10;;
24259;SDS011;12384;48.112;18.418;2022-08-21T02:29:52;12.53;;;11.50;;
24259;SDS011;12384;48.112;18.418;2022-08-21T02:32:21;12.20;;;11.10;;
24259;SDS011;12384;48.112;18.418;2022-08-21T02:34:50;13.43;;;12.00;;
24259;SDS011;12384;48.112;18.418;2022-08-21T02:37:19;13.57;;;12.37;;
24259;SDS011;12384;48.112;18.418;2022-08-21T02:39:47;13.13;;;11.93;;
24259;SDS011;12384;48.112;18.418;2022-08-21T02:42:16;13.97;;;12.67;;
24259;SDS011;12384;48.112;18.418;2022-08-21T02:44:46;13.17;;;12.07;;
24259;SDS011;12384;48.112;18.418;2022-08-21T02:47:14;13.90;;;12.60;;
24259;SDS011;12384;48.112;18.418;2022-08-21T02:49:43;11.93;;;10.93;;
24259;SDS011;12384;48.112;18.418;2022-08-21T02:52:11;12.67;;;11.43;;
24259;SDS011;12384;48.112;18.418;2022-08-21T02:54:40;12.30;;;11.30;;
24259;SDS011;12384;48.112;18.418;2022-08-21T02:57:09;11.90;;;10.90;;
24259;SDS011;12384;48.112;18.418;2022-08-21T02:59:37;12.83;;;11.53;;
24259;SDS011;12384;48.112;18.418;2022-08-21T03:02:08;11.70;;;10.80;;
24259;SDS011;12384;48.112;18.418;2022-08-21T03:04:37;12.83;;;11.73;;
24259;SDS011;12384;48.112;18.418;2022-08-21T03:07:12;12.10;;;11.00;;
24259;SDS011;12384;48.112;18.418;2022-08-21T03:09:41;11.13;;;10.23;;
24259;SDS011;12384;48.112;18.418;2022-08-21T03:12:21;10.97;;;10.07;;
24259;SDS011;12384;48.112;18.418;2022-08-21T03:14:49;11.77;;;10.73;;
24259;SDS011;12384;48.112;18.418;2022-08-21T03:17:19;10.70;;;9.70;;
24259;SDS011;12384;48.112;18.418;2022-08-21T03:19:55;10.90;;;9.97;;
24259;SDS011;12384;48.112;18.418;2022-08-21T03:22:25;10.50;;;9.60;;
24259;SDS011;12384;48.112;18.418;2022-08-21T03:24:56;10.93;;;10.03;;
24259;SDS011;12384;48.112;18.418;2022-08-21T03:27:26;10.10;;;9.30;;
24259;SDS011;12384;48.112;18.418;2022-08-21T03:29:56;9.60;;;8.80;;
24259;SDS011;12384;48.112;18.418;2022-08-21T03:32:26;8.73;;;8.10;;
24259;SDS011;12384;48.112;18.418;2022-08-21T03:34:55;8.60;;;8.00;;
24259;SDS011;12384;48.112;18.418;2022-08-21T03:37:24;8.87;;;8.17;;
24259;SDS011;12384;48.112;18.418;2022-08-21T03:39:52;8.40;;;7.70;;
24259;SDS011;12384;48.112;18.418;2022-08-21T03:42:21;8.17;;;7.50;;
24259;SDS011;12384;48.112;18.418;2022-08-21T03:44:50;7.43;;;6.93;;
24259;SDS011;12384;48.112;18.418;2022-08-21T03:47:18;8.30;;;7.70;;
24259;SDS011;12384;48.112;18.418;2022-08-21T03:49:49;8.20;;;7.60;;
24259;SDS011;12384;48.112;18.418;2022-08-21T03:52:18;8.20;;;7.60;;
24259;SDS011;12384;48.112;18.418;2022-08-21T03:54:47;8.53;;;7.73;;
24259;SDS011;12384;48.112;18.418;2022-08-21T03:57:16;7.70;;;7.20;;
24259;SDS011;12384;48.112;18.418;2022-08-21T03:59:45;8.23;;;7.63;;
24259;SDS011;12384;48.112;18.418;2022-08-21T04:02:14;7.60;;;7.10;;
24259;SDS011;12384;48.112;18.418;2022-08-21T04:04:45;7.87;;;7.27;;
24259;SDS011;12384;48.112;18.418;2022-08-21T04:07:15;8.20;;;7.50;;
24259;SDS011;12384;48.112;18.418;2022-08-21T04:09:44;7.90;;;7.30;;
24259;SDS011;12384;48.112;18.418;2022-08-21T04:12:12;8.03;;;7.33;;
24259;SDS011;12384;48.112;18.418;2022-08-21T04:14:41;8.63;;;7.93;;
24259;SDS011;12384;48.112;18.418;2022-08-21T04:17:09;8.07;;;7.37;;
24259;SDS011;12384;48.112;18.418;2022-08-21T04:19:38;8.00;;;7.40;;
24259;SDS011;12384;48.112;18.418;2022-08-21T04:22:06;7.30;;;6.80;;
24259;SDS011;12384;48.112;18.418;2022-08-21T04:24:36;8.10;;;7.50;;
24259;SDS011;12384;48.112;18.418;2022-08-21T04:27:05;7.97;;;7.37;;
24259;SDS011;12384;48.112;18.418;2022-08-21T04:29:33;8.00;;;7.40;;
24259;SDS011;12384;48.112;18.418;2022-08-21T04:32:05;9.20;;;7.93;;
24259;SDS011;12384;48.112;18.418;2022-08-21T04:34:34;9.03;;;8.27;;
24259;SDS011;12384;48.112;18.418;2022-08-21T04:37:02;8.43;;;7.83;;
24259;SDS011;12384;48.112;18.418;2022-08-21T04:39:31;8.70;;;7.97;;
24259;SDS011;12384;48.112;18.418;2022-08-21T04:42:01;9.40;;;8.63;;
24259;SDS011;12384;48.112;18.418;2022-08-21T04:44:30;9.20;;;8.50;;
24259;SDS011;12384;48.112;18.418;2022-08-21T04:46:59;9.43;;;8.70;;
24259;SDS011;12384;48.112;18.418;2022-08-21T04:49:28;9.93;;;9.13;;
24259;SDS011;12384;48.112;18.418;2022-08-21T04:51:59;9.17;;;8.47;;
24259;SDS011;12384;48.112;18.418;2022-08-21T04:54:28;9.30;;;8.53;;
24259;SDS011;12384;48.112;18.418;2022-08-21T04:56:58;9.03;;;8.33;;
24259;SDS011;12384;48.112;18.418;2022-08-21T04:59:32;8.67;;;8.03;;
24259;SDS011;12384;48.112;18.418;2022-08-21T05:02:04;8.70;;;8.00;;
24259;SDS011;12384;48.112;18.418;2022-08-21T05:04:34;10.30;;;9.30;;
24259;SDS011;12384;48.112;18.418;2022-08-21T05:07:09;10.13;;;9.23;;
24259;SDS011;12384;48.112;18.418;2022-08-21T05:09:40;8.90;;;8.20;;
24259;SDS011;12384;48.112;18.418;2022-08-21T05:12:09;9.23;;;8.40;;
24259;SDS011;12384;48.112;18.418;2022-08-21T05:14:39;8.73;;;8.03;;
24259;SDS011;12384;48.112;18.418;2022-08-21T05:17:08;8.83;;;8.03;;
24259;SDS011;12384;48.112;18.418;2022-08-21T05:19:37;8.37;;;7.67;;
24259;SDS011;12384;48.112;18.418;2022-08-21T05:22:06;8.90;;;8.20;;
24259;SDS011;12384;48.112;18.418;2022-08-21T05:24:35;8.60;;;7.90;;
24259;SDS011;12384;48.112;18.418;2022-08-21T05:27:05;7.90;;;7.37;;
24259;SDS011;12384;48.112;18.418;2022-08-21T05:29:33;7.53;;;7.00;;
24259;SDS011;12384;48.112;18.418;2022-08-21T05:32:09;7.97;;;7.37;;
24259;SDS011;12384;48.112;18.418;2022-08-21T05:34:38;9.63;;;8.80;;
24259;SDS011;12384;48.112;18.418;2022-08-21T05:37:06;9.03;;;8.33;;
24259;SDS011;12384;48.112;18.418;2022-08-21T05:39:37;8.37;;;7.77;;
24259;SDS011;12384;48.112;18.418;2022-08-21T05:42:25;9.83;;;9.03;;
24259;SDS011;12384;48.112;18.418;2022-08-21T05:44:54;8.23;;;7.57;;
24259;SDS011;12384;48.112;18.418;2022-08-21T05:47:24;8.10;;;7.50;;
24259;SDS011;12384;48.112;18.418;2022-08-21T05:49:52;8.47;;;7.67;;
24259;SDS011;12384;48.112;18.418;2022-08-21T05:52:21;8.50;;;7.87;;
24259;SDS011;12384;48.112;18.418;2022-08-21T05:54:50;7.60;;;7.10;;
24259;SDS011;12384;48.112;18.418;2022-08-21T05:57:20;7.37;;;6.87;;
24259;SDS011;12384;48.112;18.418;2022-08-21T05:59:49;7.17;;;6.67;;
24259;SDS011;12384;48.112;18.418;2022-08-21T06:02:18;7.53;;;6.83;;
24259;SDS011;12384;48.112;18.418;2022-08-21T06:04:49;7.90;;;7.30;;
24259;SDS011;12384;48.112;18.418;2022-08-21T06:07:18;7.70;;;7.20;;
24259;SDS011;12384;48.112;18.418;2022-08-21T06:09:46;6.63;;;6.13;;
24259;SDS011;12384;48.112;18.418;2022-08-21T06:12:15;6.67;;;6.17;;
24259;SDS011;12384;48.112;18.418;2022-08-21T06:14:44;6.83;;;6.33;;
24259;SDS011;12384;48.112;18.418;2022-08-21T06:17:13;6.10;;;5.70;;
24259;SDS011;12384;48.112;18.418;2022-08-21T06:19:42;10.07;;;7.30;;
24259;SDS011;12384;48.112;18.418;2022-08-21T06:22:13;7.00;;;6.50;;
24259;SDS011;12384;48.112;18.418;2022-08-21T06:24:41;6.83;;;6.33;;
24259;SDS011;12384;48.112;18.418;2022-08-21T06:27:10;6.80;;;6.30;;
24259;SDS011;12384;48.112;18.418;2022-08-21T06:29:38;7.43;;;6.83;;
24259;SDS011;12384;48.112;18.418;2022-08-21T06:32:10;6.60;;;6.20;;
24259;SDS011;12384;48.112;18.418;2022-08-21T06:34:41;5.97;;;5.57;;
24259;SDS011;12384;48.112;18.418;2022-08-21T06:37:10;6.10;;;5.60;;
24259;SDS011;12384;48.112;18.418;2022-08-21T06:39:40;6.50;;;6.00;;
24259;SDS011;12384;48.112;18.418;2022-08-21T06:42:13;6.50;;;6.00;;
24259;SDS011;12384;48.112;18.418;2022-08-21T06:44:43;7.20;;;6.70;;
24259;SDS011;12384;48.112;18.418;2022-08-21T06:47:12;6.40;;;6.00;;
24259;SDS011;12384;48.112;18.418;2022-08-21T06:49:40;6.40;;;6.00;;
24259;SDS011;12384;48.112;18.418;2022-08-21T06:52:09;6.70;;;6.30;;
24259;SDS011;12384;48.112;18.418;2022-08-21T06:54:40;6.97;;;6.47;;
24259;SDS011;12384;48.112;18.418;2022-08-21T06:57:09;7.23;;;6.73;;
24259;SDS011;12384;48.112;18.418;2022-08-21T06:59:37;7.53;;;7.03;;
24259;SDS011;12384;48.112;18.418;2022-08-21T07:02:06;7.40;;;6.90;;
24259;SDS011;12384;48.112;18.418;2022-08-21T07:04:35;8.03;;;7.53;;
24259;SDS011;12384;48.112;18.418;2022-08-21T07:07:03;8.03;;;7.53;;
24259;SDS011;12384;48.112;18.418;2022-08-21T07:09:32;7.43;;;6.93;;
24259;SDS011;12384;48.112;18.418;2022-08-21T07:12:02;7.30;;;6.80;;
24259;SDS011;12384;48.112;18.418;2022-08-21T07:14:31;7.83;;;7.23;;
24259;SDS011;12384;48.112;18.418;2022-08-21T07:17:00;7.73;;;7.20;;
24259;SDS011;12384;48.112;18.418;2022-08-21T07:19:28;7.63;;;7.13;;
24259;SDS011;12384;48.112;18.418;2022-08-21T07:21:58;8.00;;;7.40;;
24259;SDS011;12384;48.112;18.418;2022-08-21T07:24:28;8.17;;;7.57;;
24259;SDS011;12384;48.112;18.418;2022-08-21T07:26:57;7.47;;;6.97;;
24259;SDS011;12384;48.112;18.418;2022-08-21T07:29:27;7.50;;;7.00;;
24259;SDS011;12384;48.112;18.418;2022-08-21T07:31:55;8.17;;;7.47;;
24259;SDS011;12384;48.112;18.418;2022-08-21T07:34:24;7.50;;;7.07;;
24259;SDS011;12384;48.112;18.418;2022-08-21T07:36:52;8.30;;;7.80;;
24259;SDS011;12384;48.112;18.418;2022-08-21T07:39:21;8.33;;;7.63;;
24259;SDS011;12384;48.112;18.418;2022-08-21T07:41:50;8.00;;;7.50;;
24259;SDS011;12384;48.112;18.418;2022-08-21T07:44:18;8.30;;;7.80;;
24259;SDS011;12384;48.112;18.418;2022-08-21T07:46:48;8.67;;;8.17;;
24259;SDS011;12384;48.112;18.418;2022-08-21T07:49:16;7.97;;;7.57;;
24259;SDS011;12384;48.112;18.418;2022-08-21T07:51:45;8.30;;;7.90;;
24259;SDS011;12384;48.112;18.418;2022-08-21T07:54:13;7.80;;;7.30;;
24259;SDS011;12384;48.112;18.418;2022-08-21T07:56:42;7.20;;;6.80;;
24259;SDS011;12384;48.112;18.418;2022-08-21T07:59:12;8.60;;;8.03;;
24259;SDS011;12384;48.112;18.418;2022-08-21T08:01:40;8.20;;;7.70;;
24259;SDS011;12384;48.112;18.418;2022-08-21T08:04:10;8.93;;;8.43;;
24259;SDS011;12384;48.112;18.418;2022-08-21T08:06:39;8.73;;;8.23;;
24259;SDS011;12384;48.112;18.418;2022-08-21T08:09:07;8.10;;;7.65;;
24259;SDS011;12384;48.112;18.418;2022-08-21T08:11:36;8.52;;;8.05;;
24259;SDS011;12384;48.112;18.418;2022-08-21T08:14:09;8.45;;;8.02;;
24259;SDS011;12384;48.112;18.418;2022-08-21T08:16:38;8.85;;;8.35;;
24259;SDS011;12384;48.112;18.418;2022-08-21T08:19:06;8.63;;;8.23;;
24259;SDS011;12384;48.112;18.418;2022-08-21T08:21:36;8.45;;;7.90;;
24259;SDS011;12384;48.112;18.418;2022-08-21T08:24:05;9.38;;;8.73;;
24259;SDS011;12384;48.112;18.418;2022-08-21T08:26:45;9.40;;;8.90;;
24259;SDS011;12384;48.112;18.418;2022-08-21T08:29:19;7.88;;;7.47;;
24259;SDS011;12384;48.112;18.418;2022-08-21T08:31:47;9.00;;;8.50;;
24259;SDS011;12384;48.112;18.418;2022-08-21T08:34:17;8.43;;;8.02;;
24259;SDS011;12384;48.112;18.418;2022-08-21T08:36:52;9.37;;;8.87;;
24259;SDS011;12384;48.112;18.418;2022-08-21T08:39:22;9.52;;;9.02;;
24259;SDS011;12384;48.112;18.418;2022-08-21T08:41:56;9.95;;;9.35;;
24259;SDS011;12384;48.112;18.418;2022-08-21T08:44:54;8.90;;;8.40;;
24259;SDS011;12384;48.112;18.418;2022-08-21T08:47:26;9.15;;;8.65;;
24259;SDS011;12384;48.112;18.418;2022-08-21T08:49:59;8.98;;;8.48;;
24259;SDS011;12384;48.112;18.418;2022-08-21T08:52:33;8.63;;;8.20;;
24259;SDS011;12384;48.112;18.418;2022-08-21T08:55:04;8.47;;;8.07;;
24259;SDS011;12384;48.112;18.418;2022-08-21T08:57:35;9.03;;;8.60;;
24259;SDS011;12384;48.112;18.418;2022-08-21T09:00:06;8.80;;;8.30;;
24259;SDS011;12384;48.112;18.418;2022-08-21T09:02:38;8.83;;;8.40;;
24259;SDS011;12384;48.112;18.418;2022-08-21T09:05:07;9.03;;;8.43;;
24259;SDS011;12384;48.112;18.418;2022-08-21T09:07:47;8.50;;;8.00;;
24259;SDS011;12384;48.112;18.418;2022-08-21T09:10:33;9.35;;;8.60;;
24259;SDS011;12384;48.112;18.418;2022-08-21T09:13:10;9.47;;;8.83;;
24259;SDS011;12384;48.112;18.418;2022-08-21T09:15:46;9.02;;;8.52;;
24259;SDS011;12384;48.112;18.418;2022-08-21T09:18:26;8.40;;;8.00;;
24259;SDS011;12384;48.112;18.418;2022-08-21T09:21:08;9.30;;;8.80;;
24259;SDS011;12384;48.112;18.418;2022-08-21T09:23:46;8.90;;;8.50;;
24259;SDS011;12384;48.112;18.418;2022-08-21T09:26:23;8.73;;;8.23;;
24259;SDS011;12384;48.112;18.418;2022-08-21T09:28:54;8.50;;;8.00;;
24259;SDS011;12384;48.112;18.418;2022-08-21T09:31:27;8.73;;;8.15;;
24259;SDS011;12384;48.112;18.418;2022-08-21T09:33:59;8.27;;;7.87;;
24259;SDS011;12384;48.112;18.418;2022-08-21T09:36:33;9.07;;;8.57;;
24259;SDS011;12384;48.112;18.418;2022-08-21T09:39:06;9.07;;;8.67;;
24259;SDS011;12384;48.112;18.418;2022-08-21T09:41:37;8.20;;;7.80;;
24259;SDS011;12384;48.112;18.418;2022-08-21T09:44:07;8.47;;;8.07;;
24259;SDS011;12384;48.112;18.418;2022-08-21T09:46:36;8.50;;;8.00;;
24259;SDS011;12384;48.112;18.418;2022-08-21T09:49:04;7.93;;;7.53;;
24259;SDS011;12384;48.112;18.418;2022-08-21T09:51:48;7.57;;;7.17;;
24259;SDS011;12384;48.112;18.418;2022-08-21T09:54:23;7.00;;;6.70;;
24259;SDS011;12384;48.112;18.418;2022-08-21T09:56:57;7.53;;;7.13;;
24259;SDS011;12384;48.112;18.418;2022-08-21T09:59:45;7.47;;;7.07;;
24259;SDS011;12384;48.112;18.418;2022-08-21T10:02:26;9.30;;;8.80;;
24259;SDS011;12384;48.112;18.418;2022-08-21T10:04:59;9.60;;;9.10;;
24259;SDS011;12384;48.112;18.418;2022-08-21T10:07:31;8.70;;;8.20;;
24259;SDS011;12384;48.112;18.418;2022-08-21T10:10:06;8.60;;;8.17;;
24259;SDS011;12384;48.112;18.418;2022-08-21T10:12:40;8.10;;;7.70;;
24259;SDS011;12384;48.112;18.418;2022-08-21T10:15:17;8.20;;;7.80;;
24259;SDS011;12384;48.112;18.418;2022-08-21T10:17:52;8.23;;;7.73;;
24259;SDS011;12384;48.112;18.418;2022-08-21T10:20:35;10.00;;;9.50;;
24259;SDS011;12384;48.112;18.418;2022-08-21T10:23:29;10.37;;;9.77;;
24259;SDS011;12384;48.112;18.418;2022-08-21T10:26:09;7.93;;;7.53;;
24259;SDS011;12384;48.112;18.418;2022-08-21T10:28:46;7.80;;;7.40;;
24259;SDS011;12384;48.112;18.418;2022-08-21T10:31:24;7.30;;;7.00;;
24259;SDS011;12384;48.112;18.418;2022-08-21T10:34:05;7.45;;;7.05;;
24259;SDS011;12384;48.112;18.418;2022-08-21T10:36:45;7.63;;;7.22;;
24259;SDS011;12384;48.112;18.418;2022-08-21T10:39:19;8.50;;;8.10;;
24259;SDS011;12384;48.112;18.418;2022-08-21T10:42:06;8.13;;;7.73;;
24259;SDS011;12384;48.112;18.418;2022-08-21T10:44:56;7.65;;;7.25;;
24259;SDS011;12384;48.112;18.418;2022-08-21T10:47:40;8.18;;;7.78;;
24259;SDS011;12384;48.112;18.418;2022-08-21T10:50:15;8.30;;;7.90;;
24259;SDS011;12384;48.112;18.418;2022-08-21T10:52:56;7.72;;;7.32;;
24259;SDS011;12384;48.112;18.418;2022-08-21T10:55:33;7.90;;;7.40;;
24259;SDS011;12384;48.112;18.418;2022-08-21T10:58:10;8.00;;;7.60;;
24259;SDS011;12384;48.112;18.418;2022-08-21T11:00:43;7.90;;;7.50;;
24259;SDS011;12384;48.112;18.418;2022-08-21T11:03:17;7.82;;;7.43;;
24259;SDS011;12384;48.112;18.418;2022-08-21T11:05:54;7.97;;;7.57;;
24259;SDS011;12384;48.112;18.418;2022-08-21T11:08:28;8.07;;;7.45;;
24259;SDS011;12384;48.112;18.418;2022-08-21T11:11:04;7.88;;;7.47;;
24259;SDS011;12384;48.112;18.418;2022-08-21T11:13:38;7.93;;;7.53;;
24259;SDS011;12384;48.112;18.418;2022-08-21T11:16:12;7.83;;;7.43;;
24259;SDS011;12384;48.112;18.418;2022-08-21T11:18:47;7.63;;;7.22;;
24259;SDS011;12384;48.112;18.418;2022-08-21T11:21:26;8.48;;;8.07;;
24259;SDS011;12384;48.112;18.418;2022-08-21T11:24:02;8.77;;;8.33;;
24259;SDS011;12384;48.112;18.418;2022-08-21T11:26:43;8.43;;;8.00;;
24259;SDS011;12384;48.112;18.418;2022-08-21T11:29:19;7.90;;;7.50;;
24259;SDS011;12384;48.112;18.418;2022-08-21T11:31:56;8.55;;;8.05;;
24259;SDS011;12384;48.112;18.418;2022-08-21T11:34:45;8.20;;;7.80;;
24259;SDS011;12384;48.112;18.418;2022-08-21T11:37:26;8.52;;;8.13;;
24259;SDS011;12384;48.112;18.418;2022-08-21T11:40:09;8.48;;;8.00;;
24259;SDS011;12384;48.112;18.418;2022-08-21T11:42:45;8.32;;;7.93;;
24259;SDS011;12384;48.112;18.418;2022-08-21T11:45:23;8.30;;;7.90;;
24259;SDS011;12384;48.112;18.418;2022-08-21T11:48:00;8.15;;;7.75;;
24259;SDS011;12384;48.112;18.418;2022-08-21T11:50:37;7.95;;;7.55;;
24259;SDS011;12384;48.112;18.418;2022-08-21T11:53:09;8.00;;;7.50;;
24259;SDS011;12384;48.112;18.418;2022-08-21T11:55:42;7.50;;;7.10;;
24259;SDS011;12384;48.112;18.418;2022-08-21T11:58:16;8.00;;;7.60;;
24259;SDS011;12384;48.112;18.418;2022-08-21T12:00:51;8.50;;;8.00;;
24259;SDS011;12384;48.112;18.418;2022-08-21T12:03:23;8.50;;;8.10;;
24259;SDS011;12384;48.112;18.418;2022-08-21T12:05:56;8.20;;;7.80;;
24259;SDS011;12384;48.112;18.418;2022-08-21T12:08:28;8.40;;;7.97;;
24259;SDS011;12384;48.112;18.418;2022-08-21T12:11:00;8.00;;;7.60;;
24259;SDS011;12384;48.112;18.418;2022-08-21T12:13:33;8.05;;;7.50;;
24259;SDS011;12384;48.112;18.418;2022-08-21T12:16:11;8.02;;;7.63;;
24259;SDS011;12384;48.112;18.418;2022-08-21T12:18:41;8.05;;;7.65;;
24259;SDS011;12384;48.112;18.418;2022-08-21T12:21:19;8.48;;;8.02;;
24259;SDS011;12384;48.112;18.418;2022-08-21T12:24:00;8.68;;;8.18;;
24259;SDS011;12384;48.112;18.418;2022-08-21T12:26:32;8.38;;;7.90;;
24259;SDS011;12384;48.112;18.418;2022-08-21T12:29:03;7.88;;;7.47;;
24259;SDS011;12384;48.112;18.418;2022-08-21T12:31:49;8.18;;;7.78;;
24259;SDS011;12384;48.112;18.418;2022-08-21T12:34:20;7.63;;;7.22;;
24259;SDS011;12384;48.112;18.418;2022-08-21T12:36:55;8.35;;;7.85;;
24259;SDS011;12384;48.112;18.418;2022-08-21T12:39:26;8.30;;;7.70;;
24259;SDS011;12384;48.112;18.418;2022-08-21T12:41:59;8.75;;;8.25;;
24259;SDS011;12384;48.112;18.418;2022-08-21T12:44:35;8.30;;;7.90;;
24259;SDS011;12384;48.112;18.418;2022-08-21T12:47:12;7.88;;;7.47;;
24259;SDS011;12384;48.112;18.418;2022-08-21T12:49:47;8.40;;;8.00;;
24259;SDS011;12384;48.112;18.418;2022-08-21T12:52:22;8.70;;;8.30;;
24259;SDS011;12384;48.112;18.418;2022-08-21T12:54:52;8.65;;;8.25;;
24259;SDS011;12384;48.112;18.418;2022-08-21T12:57:21;8.30;;;7.70;;
24259;SDS011;12384;48.112;18.418;2022-08-21T12:59:55;8.15;;;7.75;;
24259;SDS011;12384;48.112;18.418;2022-08-21T13:02:28;8.80;;;8.40;;
24259;SDS011;12384;48.112;18.418;2022-08-21T13:05:01;8.15;;;7.65;;
24259;SDS011;12384;48.112;18.418;2022-08-21T13:07:32;9.32;;;8.73;;
24259;SDS011;12384;48.112;18.418;2022-08-21T13:10:04;8.75;;;8.25;;
24259;SDS011;12384;48.112;18.418;2022-08-21T13:12:35;9.70;;;9.10;;
24259;SDS011;12384;48.112;18.418;2022-08-21T13:15:04;9.70;;;9.07;;
24259;SDS011;12384;48.112;18.418;2022-08-21T13:17:36;9.30;;;8.80;;
24259;SDS011;12384;48.112;18.418;2022-08-21T13:20:08;9.82;;;9.23;;
24259;SDS011;12384;48.112;18.418;2022-08-21T13:22:46;9.32;;;8.82;;
24259;SDS011;12384;48.112;18.418;2022-08-21T13:25:15;9.73;;;9.23;;
24259;SDS011;12384;48.112;18.418;2022-08-21T13:27:58;9.73;;;9.17;;
24259;SDS011;12384;48.112;18.418;2022-08-21T13:30:28;9.60;;;9.10;;
24259;SDS011;12384;48.112;18.418;2022-08-21T13:33:00;9.20;;;8.70;;
24259;SDS011;12384;48.112;18.418;2022-08-21T13:35:45;9.20;;;8.70;;
24259;SDS011;12384;48.112;18.418;2022-08-21T13:38:16;9.67;;;9.17;;
24259;SDS011;12384;48.112;18.418;2022-08-21T13:40:54;9.30;;;8.80;;
24259;SDS011;12384;48.112;18.418;2022-08-21T13:43:25;9.17;;;8.67;;
24259;SDS011;12384;48.112;18.418;2022-08-21T13:45:56;9.70;;;9.20;;
24259;SDS011;12384;48.112;18.418;2022-08-21T13:48:28;9.40;;;8.90;;
24259;SDS011;12384;48.112;18.418;2022-08-21T13:51:00;9.77;;;9.17;;
24259;SDS011;12384;48.112;18.418;2022-08-21T13:53:31;9.70;;;9.00;;
24259;SDS011;12384;48.112;18.418;2022-08-21T13:56:00;9.60;;;9.10;;
24259;SDS011;12384;48.112;18.418;2022-08-21T13:58:31;10.53;;;9.73;;
24259;SDS011;12384;48.112;18.418;2022-08-21T14:01:16;9.90;;;9.30;;
24259;SDS011;12384;48.112;18.418;2022-08-21T14:03:48;9.27;;;8.77;;
24259;SDS011;12384;48.112;18.418;2022-08-21T14:06:19;9.67;;;9.07;;
24259;SDS011;12384;48.112;18.418;2022-08-21T14:08:51;11.20;;;10.60;;
24259;SDS011;12384;48.112;18.418;2022-08-21T14:11:21;10.43;;;9.73;;
24259;SDS011;12384;48.112;18.418;2022-08-21T14:13:51;9.97;;;9.37;;
24259;SDS011;12384;48.112;18.418;2022-08-21T14:16:26;10.37;;;9.77;;
24259;SDS011;12384;48.112;18.418;2022-08-21T14:19:08;10.53;;;9.93;;
24259;SDS011;12384;48.112;18.418;2022-08-21T14:21:39;10.10;;;9.50;;
24259;SDS011;12384;48.112;18.418;2022-08-21T14:24:10;9.90;;;9.30;;
24259;SDS011;12384;48.112;18.418;2022-08-21T14:26:48;9.60;;;8.90;;
24259;SDS011;12384;48.112;18.418;2022-08-21T14:29:20;9.70;;;9.10;;
24259;SDS011;12384;48.112;18.418;2022-08-21T14:31:52;9.57;;;8.97;;
24259;SDS011;12384;48.112;18.418;2022-08-21T14:34:26;10.70;;;10.10;;
24259;SDS011;12384;48.112;18.418;2022-08-21T14:37:01;10.80;;;10.10;;
24259;SDS011;12384;48.112;18.418;2022-08-21T14:39:30;10.87;;;10.27;;
24259;SDS011;12384;48.112;18.418;2022-08-21T14:41:58;11.10;;;10.50;;
24259;SDS011;12384;48.112;18.418;2022-08-21T14:44:30;11.50;;;10.90;;
24259;SDS011;12384;48.112;18.418;2022-08-21T14:46:59;11.37;;;10.77;;
24259;SDS011;12384;48.112;18.418;2022-08-21T14:49:29;12.17;;;11.40;;
24259;SDS011;12384;48.112;18.418;2022-08-21T14:51:58;11.77;;;11.07;;
24259;SDS011;12384;48.112;18.418;2022-08-21T14:54:27;12.07;;;11.37;;
24259;SDS011;12384;48.112;18.418;2022-08-21T14:56:58;11.70;;;11.10;;